Shizka — DSQL2 — position and weather

sailwx.info

Track history (hours):
 
Tides and Currents Weather Stations Pressure Air Temp Water Temp Dewpoint Dewpoint Depression Visibility Wind Speed Wind Dir Waves Ship Positions

Shizka

Last reported at 2017-Nov-24 08:00 UTC. Time now 2017-Nov-25 04:10 UTC.
Position N 35°03' E 139°33'.

Length 74 m; draft 5 m.

Type: Cargo ship. MMSI: 441613000.

Date/timePositionNaut miles runAvg speedWind from/ knotsBaromVisibWave heightAir tempDewpointWater temp
2017-Nov-24 08:00N 35°03' E 139°33'3 6.7
2017-Nov-24 07:30N 35°04' E 139°37'3 6.3
2017-Nov-24 07:00N 35°06' E 139°40'3 6.8
2017-Nov-24 06:30N 35°08' E 139°43'4 7.7
2017-Nov-24 06:00N 35°12' E 139°45'4 7.7
2017-Nov-24 05:30N 35°15' E 139°46'5 9.3
2017-Nov-24 05:00N 35°19' E 139°43'4 8.3
2017-Nov-24 04:30N 35°23' E 139°43'4 7.7
2017-Nov-24 04:00N 35°25' E 139°47'4 8.6
2017-Nov-24 03:30N 35°23' E 139°51'2 1.0
2017-Nov-24 01:28N 35°22' E 139°53'0 0.0
2017-Nov-24 00:46N 35°22' E 139°53'0 0.0
2017-Nov-24 00:28N 35°22' E 139°53'0 0.0
2017-Nov-23 22:10N 35°22' E 139°53'0 0.0
2017-Nov-23 21:40N 35°22' E 139°53'0 0.1
2017-Nov-23 21:28N 35°22' E 139°53'0 0.0
2017-Nov-23 20:49N 35°22' E 139°53'0 0.0
2017-Nov-23 20:25N 35°22' E 139°53'0 0.0
2017-Nov-23 18:28N 35°22' E 139°53'0 0.0
2017-Nov-23 17:55N 35°22' E 139°53'0 0.0
2017-Nov-23 17:19N 35°22' E 139°53'0 0.0
2017-Nov-23 16:55N 35°22' E 139°53'0 0.0
2017-Nov-23 16:25N 35°22' E 139°53'0 0.0
2017-Nov-23 15:58N 35°22' E 139°53'0 0.0
2017-Nov-23 15:28N 35°22' E 139°53'0 0.0
2017-Nov-23 14:58N 35°22' E 139°53'0 0.0
2017-Nov-23 10:46N 35°22' E 139°53'0 0.0
2017-Nov-23 10:25N 35°22' E 139°53'0 0.0
2017-Nov-23 09:58N 35°22' E 139°53'0 0.0
2017-Nov-23 09:25N 35°22' E 139°53'0 0.0
2017-Nov-23 08:58N 35°22' E 139°53'0 0.0
2017-Nov-23 08:25N 35°22' E 139°53'0 0.0
2017-Nov-23 07:58N 35°22' E 139°53'0 0.0
2017-Nov-23 07:28N 35°22' E 139°53'0 0.0
2017-Nov-23 06:58N 35°22' E 139°53'0 0.0
2017-Nov-23 06:28N 35°22' E 139°53'0 0.0
2017-Nov-23 05:58N 35°22' E 139°53'0 0.0
2017-Nov-23 05:28N 35°22' E 139°53'0 0.0
2017-Nov-23 04:58N 35°22' E 139°53'0 0.0
2017-Nov-23 04:16N 35°22' E 139°53'0 0.0
2017-Nov-23 03:58N 35°22' E 139°53'0 0.0
2017-Nov-23 03:22N 35°22' E 139°53'0 0.0
2017-Nov-23 01:37N 35°22' E 139°53'0 0.0
2017-Nov-23 01:28N 35°22' E 139°53'0 0.0
2017-Nov-23 00:55N 35°22' E 139°53'0 0.0
2017-Nov-23 00:25N 35°22' E 139°53'0 0.0
2017-Nov-22 23:34N 35°22' E 139°53'0 0.0
2017-Nov-22 23:19N 35°22' E 139°53'0 0.0
2017-Nov-22 22:55N 35°22' E 139°53'0 0.0
2017-Nov-22 22:28N 35°22' E 139°53'0 0.0
2017-Nov-22 21:58N 35°22' E 139°53'0 0.0
2017-Nov-22 21:28N 35°22' E 139°53'0 0.0
2017-Nov-22 20:55N 35°22' E 139°53'0 0.0
2017-Nov-22 20:28N 35°22' E 139°53'0 0.0
2017-Nov-22 19:58N 35°22' E 139°53'0 0.0
2017-Nov-22 19:19N 35°22' E 139°53'  
2017-Nov-20 00:30N 35°00' E 139°34'  
2017-Nov-14 17:59N 34°09' E 134°44'  
Track history (hours):
 
Tides and Currents Weather Stations Pressure Air Temp Water Temp Dewpoint Dewpoint Depression Visibility Wind Speed Wind Dir Waves Ship Positions

Shizka

Last reported at 2017-Nov-24 08:00 UTC. Time now 2017-Nov-25 04:10 UTC.
Position N 35°03' E 139°33'.

Length 74 m; draft 5 m.

Type: Cargo ship. MMSI: 441613000.

Date/timePositionNaut miles runAvg speedWind from/ knotsBaromVisibWave heightAir tempDewpointWater temp
2017-Nov-24 08:00N 35°03' E 139°33'3 6.7
2017-Nov-24 07:30N 35°04' E 139°37'3 6.3
2017-Nov-24 07:00N 35°06' E 139°40'3 6.8
2017-Nov-24 06:30N 35°08' E 139°43'4 7.7
2017-Nov-24 06:00N 35°12' E 139°45'4 7.7
2017-Nov-24 05:30N 35°15' E 139°46'5 9.3
2017-Nov-24 05:00N 35°19' E 139°43'4 8.3
2017-Nov-24 04:30N 35°23' E 139°43'4 7.7
2017-Nov-24 04:00N 35°25' E 139°47'4 8.6
2017-Nov-24 03:30N 35°23' E 139°51'2 1.0
2017-Nov-24 01:28N 35°22' E 139°53'0 0.0
2017-Nov-24 00:46N 35°22' E 139°53'0 0.0
2017-Nov-24 00:28N 35°22' E 139°53'0 0.0
2017-Nov-23 22:10N 35°22' E 139°53'0 0.0
2017-Nov-23 21:40N 35°22' E 139°53'0 0.1
2017-Nov-23 21:28N 35°22' E 139°53'0 0.0
2017-Nov-23 20:49N 35°22' E 139°53'0 0.0
2017-Nov-23 20:25N 35°22' E 139°53'0 0.0
2017-Nov-23 18:28N 35°22' E 139°53'0 0.0
2017-Nov-23 17:55N 35°22' E 139°53'0 0.0
2017-Nov-23 17:19N 35°22' E 139°53'0 0.0
2017-Nov-23 16:55N 35°22' E 139°53'0 0.0
2017-Nov-23 16:25N 35°22' E 139°53'0 0.0
2017-Nov-23 15:58N 35°22' E 139°53'0 0.0
2017-Nov-23 15:28N 35°22' E 139°53'0 0.0
2017-Nov-23 14:58N 35°22' E 139°53'0 0.0
2017-Nov-23 10:46N 35°22' E 139°53'0 0.0
2017-Nov-23 10:25N 35°22' E 139°53'0 0.0
2017-Nov-23 09:58N 35°22' E 139°53'0 0.0
2017-Nov-23 09:25N 35°22' E 139°53'0 0.0
2017-Nov-23 08:58N 35°22' E 139°53'0 0.0
2017-Nov-23 08:25N 35°22' E 139°53'0 0.0
2017-Nov-23 07:58N 35°22' E 139°53'0 0.0
2017-Nov-23 07:28N 35°22' E 139°53'0 0.0
2017-Nov-23 06:58N 35°22' E 139°53'0 0.0
2017-Nov-23 06:28N 35°22' E 139°53'0 0.0
2017-Nov-23 05:58N 35°22' E 139°53'0 0.0
2017-Nov-23 05:28N 35°22' E 139°53'0 0.0
2017-Nov-23 04:58N 35°22' E 139°53'0 0.0
2017-Nov-23 04:16N 35°22' E 139°53'0 0.0
2017-Nov-23 03:58N 35°22' E 139°53'0 0.0
2017-Nov-23 03:22N 35°22' E 139°53'0 0.0
2017-Nov-23 01:37N 35°22' E 139°53'0 0.0
2017-Nov-23 01:28N 35°22' E 139°53'0 0.0
2017-Nov-23 00:55N 35°22' E 139°53'0 0.0
2017-Nov-23 00:25N 35°22' E 139°53'0 0.0
2017-Nov-22 23:34N 35°22' E 139°53'0 0.0
2017-Nov-22 23:19N 35°22' E 139°53'0 0.0
2017-Nov-22 22:55N 35°22' E 139°53'0 0.0
2017-Nov-22 22:28N 35°22' E 139°53'0 0.0
2017-Nov-22 21:58N 35°22' E 139°53'0 0.0
2017-Nov-22 21:28N 35°22' E 139°53'0 0.0
2017-Nov-22 20:55N 35°22' E 139°53'0 0.0
2017-Nov-22 20:28N 35°22' E 139°53'0 0.0
2017-Nov-22 19:58N 35°22' E 139°53'0 0.0
2017-Nov-22 19:19N 35°22' E 139°53'  
2017-Nov-20 00:30N 35°00' E 139°34'  
2017-Nov-14 17:59N 34°09' E 134°44'  

Dump ship's entire track history